Montgomery City, MO (63361)

8:49 AM CDT on June 03, 2015 (GMT -0500)
ALSAT Wireless | | Change Station
CLOSE
Current Station
Personal Weather Station
Location: Montgomery City, MO
Elevation: 810 ft
Nearby Weather Stations
Active Advisory: Flood Warning

Elev 810 ft 38.99 °N, 91.55 °W | Updated 1 second ago

Mostly Cloudy
Mostly Cloudy
58.2 °F
Feels Like 58.2 °F
N
4.0
Wind Variable Wind from SSW
Gusts 10.0 mph

Today
High -- | Low -- °F
--% Chance of Precip.
Yesterday
High -- | Low -- °F
Precip. -- in
5:41 AM 8:26 PM
Full, 99% visible
Pressure 30.03 in
Visibility 10.0 miles
Clouds Overcast 1300 ft
Dew Point 57 °F
Humidity 95%
Rainfall 0.00 in
Snow Depth Not available.
UV 1 out of 12
Pollen 7.80 out of 12
Air Quality Not available.
Flu Activity Sporadic
METAR KFYG 031315Z AUTO 16007KT 10SM OVC013 16/14 A3003 RMK AO2

More Conditions Fewer Conditions

Pressure 30.03 in
Visibility 10.0 miles
Clouds Overcast 1300 ft
Dew Point 57 °F
Humidity 95%
Rainfall 0.00 in
Snow Depth Not available.
UV 1 out of 12
Pollen 7.80 out of 12
Air Quality Not available.
Flu Activity Sporadic
METAR KFYG 031315Z AUTO 16007KT 10SM OVC013 16/14 A3003 RMK AO2

More Conditions Fewer Conditions

10-Day Weather Forecast

×

Almanac

Astronomy

Jun. 03, 2015 Rise Set
Actual Time
Civil Twilight
Nautical Twilight
Astronomical Twilight
Moon
Length of Visible Light
Length of Day
Tomorrow will be .
, % of the Moon is Illuminated

Today's Extremes

State Highs State Lows

Community

WunderPhotos

Upload Photos

1,826,225 photos uploaded!

WunderBlogs® & News

Nearby

Air Quality

  Air Quality AQ Index Pollutant
Not available.

Snow Depth

Station Depth Elevation

Earthquake Activity

City Distance Mag. Time & Date
Minimum magnitude displayed is 2.5.

Coastal Water Temperatures

Place Temperature

Stations

Nearby Weather Stations

Station Location Temp. Windchill Dew Point Humidity Wind Precip. Elev Updated Type
                   
Flood Warning
Statement as of 7:51 PM CDT on June 02, 2015

The Flood Warning continues for
the Missouri River at Gasconade.
* At 7 am Monday the stage was 25.8 feet.
* Flood stage is 22.0 feet.
* Minor flooding is occurring.
* Forecast: the river will continue a downward trend.
* Impact: at 24.5 feet... southern portions of old rock Road and
twisters Road south of Rhineland begin flooding near this height.
* Impact: at 23.5 feet... the southern end of School House Road south
of Rhineland begins flooding near this height.
* Impact: at 22.4 feet... Gasconade park boat ramp... bbq grills... and
parking area begins flooding near this height.
* Impact: at 22.0 feet... minor flooding of cropland begins.

                   Fld latest 7 a.M. Forecast
location stg obs stg 06/03 06/04 06/05 06/06 06/07

Missouri River
Gasconade 22.0 25.80 20.4 18.6 17.5 16.9 16.3




Lat... Lon 3873 9164 3868 9164 3866 9156 3869 9150
      3872 9150